createdAt,value
2019-05-15T00:01:34.407Z,7.30
2019-05-15T00:04:05.259Z,6.90
2019-05-15T00:06:35.818Z,6.43
2019-05-15T00:09:08.082Z,6.60
2019-05-15T00:11:39.108Z,7.27
2019-05-15T00:14:09.616Z,6.57
2019-05-15T00:16:40.041Z,7.60
2019-05-15T00:19:09.752Z,7.20
2019-05-15T00:21:39.257Z,8.13
2019-05-15T00:24:13.133Z,8.03
2019-05-15T00:26:41.748Z,7.47
2019-05-15T00:29:16.051Z,6.83
2019-05-15T00:31:44.303Z,8.27
2019-05-15T00:34:14.770Z,8.30
2019-05-15T00:36:45.204Z,6.53
2019-05-15T00:39:15.629Z,9.60
2019-05-15T00:41:53.279Z,8.30
2019-05-15T00:44:18.682Z,9.03
2019-05-15T00:46:49.250Z,8.93
2019-05-15T00:49:19.689Z,9.37
2019-05-15T00:51:50.207Z,9.23
2019-05-15T00:54:20.643Z,9.37
2019-05-15T00:56:51.071Z,8.40
2019-05-15T00:59:26.618Z,9.13
2019-05-15T01:01:54.847Z,10.00
2019-05-15T01:04:28.050Z,10.47
2019-05-15T01:06:58.987Z,10.10
2019-05-15T01:09:29.560Z,9.73
2019-05-15T01:11:59.981Z,9.53
2019-05-15T01:14:30.415Z,9.63
2019-05-15T01:17:00.846Z,10.03
2019-05-15T01:19:32.286Z,9.50
2019-05-15T01:22:02.703Z,9.00
2019-05-15T01:24:33.142Z,9.73
2019-05-15T01:27:03.572Z,11.07
2019-05-15T01:29:41.985Z,10.57
2019-05-15T01:32:08.422Z,9.83
2019-05-15T01:34:39.105Z,11.17
2019-05-15T01:37:09.576Z,12.87
2019-05-15T01:39:40.106Z,10.90
2019-05-15T01:42:10.532Z,11.53
2019-05-15T01:44:40.960Z,11.60
2019-05-15T01:47:11.387Z,11.37
2019-05-15T01:49:41.813Z,12.93
2019-05-15T01:52:12.347Z,10.40
2019-05-15T01:54:42.769Z,10.90
2019-05-15T01:57:13.198Z,11.87
2019-05-15T01:59:56.874Z,12.23
2019-05-15T02:02:15.794Z,13.47
2019-05-15T02:04:48.522Z,13.53
2019-05-15T02:07:18.807Z,12.70
2019-05-15T02:09:49.399Z,9.97
2019-05-15T02:12:19.855Z,12.13
2019-05-15T02:14:50.286Z,12.37
2019-05-15T02:17:20.719Z,12.17
2019-05-15T02:19:52.149Z,12.20
2019-05-15T02:22:22.588Z,12.33
2019-05-15T02:24:53.014Z,10.80
2019-05-15T02:27:23.441Z,11.63
2019-05-15T02:30:11.665Z,10.43
2019-05-15T02:32:29.885Z,10.50
2019-05-15T02:34:59.124Z,12.03
2019-05-15T02:37:29.763Z,11.67
2019-05-15T02:40:00.285Z,11.37
2019-05-15T02:42:30.713Z,10.27
2019-05-15T02:45:01.161Z,11.17
2019-05-15T02:47:31.586Z,9.77
2019-05-15T02:50:02.198Z,11.03
2019-05-15T02:52:33.725Z,11.87
2019-05-15T02:55:04.180Z,9.60
2019-05-15T02:57:34.605Z,10.20
2019-05-15T03:00:05.800Z,10.37
2019-05-15T03:02:36.283Z,10.47
2019-05-15T03:05:09.287Z,10.00
2019-05-15T03:07:40.411Z,11.17
2019-05-15T03:10:11.453Z,10.83
2019-05-15T03:12:42.074Z,10.77
2019-05-15T03:15:12.716Z,9.83
2019-05-15T03:17:43.143Z,11.13
2019-05-15T03:20:13.574Z,11.40
2019-05-15T03:22:43.998Z,10.43
2019-05-15T03:25:14.847Z,10.30
2019-05-15T03:27:45.260Z,9.67
2019-05-15T03:30:21.063Z,10.37
2019-05-15T03:32:55.775Z,10.13
2019-05-15T03:35:22.581Z,11.73
2019-05-15T03:37:52.499Z,10.13
2019-05-15T03:40:22.983Z,10.13
2019-05-15T03:42:53.761Z,13.10
2019-05-15T03:45:24.206Z,11.23
2019-05-15T03:47:54.820Z,10.37
2019-05-15T03:50:28.299Z,11.03
2019-05-15T03:52:58.826Z,12.17
2019-05-15T03:55:29.753Z,11.77
2019-05-15T03:58:00.215Z,11.23
2019-05-15T04:00:31.667Z,11.57
2019-05-15T04:03:02.082Z,11.60
2019-05-15T04:05:32.605Z,11.57
2019-05-15T04:08:03.059Z,11.67
2019-05-15T04:10:33.624Z,11.57
2019-05-15T04:13:04.111Z,10.57
2019-05-15T04:15:34.535Z,11.93
2019-05-15T04:18:04.964Z,11.87
2019-05-15T04:20:35.387Z,11.70
2019-05-15T04:23:09.795Z,11.63
2019-05-15T04:25:39.476Z,11.63
2019-05-15T04:28:11.690Z,13.60
2019-05-15T04:30:42.122Z,12.10
2019-05-15T04:33:12.548Z,12.23
2019-05-15T04:35:42.968Z,11.53
2019-05-15T04:38:13.395Z,12.13
2019-05-15T04:40:43.830Z,11.87
2019-05-15T04:43:14.290Z,11.33
2019-05-15T04:45:44.784Z,12.43
2019-05-15T04:48:15.203Z,11.40
2019-05-15T04:50:45.635Z,11.20
2019-05-15T04:53:19.060Z,12.10
2019-05-15T04:55:49.086Z,11.90
2019-05-15T04:58:21.116Z,11.83
2019-05-15T05:00:59.544Z,11.67
2019-05-15T05:03:29.243Z,12.40
2019-05-15T05:06:00.738Z,12.27
2019-05-15T05:08:31.419Z,12.37
2019-05-15T05:11:02.894Z,11.80
2019-05-15T05:13:33.367Z,11.67
2019-05-15T05:16:03.828Z,11.23
2019-05-15T05:18:34.358Z,10.80
2019-05-15T05:21:04.794Z,11.07
2019-05-15T05:23:37.349Z,10.93
2019-05-15T05:26:10.876Z,10.67
2019-05-15T05:28:39.548Z,9.93
2019-05-15T05:31:14.027Z,10.07
2019-05-15T05:33:43.170Z,9.37
2019-05-15T05:36:14.105Z,8.97
2019-05-15T05:38:44.534Z,9.77
2019-05-15T05:41:15.999Z,8.17
2019-05-15T05:43:48.752Z,9.20
2019-05-15T05:46:19.339Z,9.33
2019-05-15T05:48:49.829Z,10.00
2019-05-15T05:51:21.279Z,8.90
2019-05-15T05:53:51.701Z,9.50
2019-05-15T05:56:24.895Z,9.23
2019-05-15T05:58:55.528Z,8.57
2019-05-15T06:01:28.229Z,8.57
2019-05-15T06:03:58.943Z,8.70
2019-05-15T06:06:29.676Z,8.77
2019-05-15T06:09:00.213Z,8.03
2019-05-15T06:11:30.742Z,8.07
2019-05-15T06:14:01.158Z,8.83
2019-05-15T06:16:31.652Z,9.13
2019-05-15T06:19:02.115Z,8.00
2019-05-15T06:21:33.679Z,7.93
2019-05-15T06:24:05.729Z,7.67
2019-05-15T06:26:38.570Z,8.43
2019-05-15T06:29:09.158Z,8.47
2019-05-15T06:31:39.579Z,8.13
2019-05-15T06:34:10.008Z,8.37
2019-05-15T06:36:40.433Z,8.20
2019-05-15T06:39:10.956Z,9.00
2019-05-15T06:41:41.400Z,8.50
2019-05-15T06:44:11.816Z,8.53
2019-05-15T06:46:42.238Z,7.90
2019-05-15T06:49:12.715Z,7.50
2019-05-15T06:51:43.406Z,7.73
2019-05-15T06:54:13.832Z,8.03
2019-05-15T06:56:44.254Z,8.00
2019-05-15T06:59:14.783Z,7.43
2019-05-15T07:01:48.156Z,8.07
2019-05-15T07:04:18.176Z,6.87
2019-05-15T07:06:49.104Z,7.30
2019-05-15T07:09:19.667Z,7.13
2019-05-15T07:11:50.100Z,7.73
2019-05-15T07:14:20.519Z,7.07
2019-05-15T07:16:50.948Z,8.67
2019-05-15T07:19:21.423Z,7.50
2019-05-15T07:21:57.942Z,7.10
2019-05-15T07:24:28.909Z,6.17
2019-05-15T07:26:59.516Z,7.33
2019-05-15T07:29:30.358Z,6.77
2019-05-15T07:32:00.785Z,5.90
2019-05-15T07:34:31.207Z,5.87
2019-05-15T07:37:01.654Z,6.00
2019-05-15T07:39:33.144Z,6.30
2019-05-15T07:42:03.614Z,5.43
2019-05-15T07:44:34.040Z,5.80
2019-05-15T07:47:04.469Z,5.30
2019-05-15T07:49:34.907Z,6.07
2019-05-15T07:52:04.534Z,5.47
2019-05-15T07:54:35.032Z,5.07
2019-05-15T07:57:05.458Z,5.43
2019-05-15T07:59:38.682Z,5.20
2019-05-15T08:02:10.603Z,4.55
2019-05-15T08:04:41.043Z,4.10
2019-05-15T08:07:11.572Z,4.40
2019-05-15T08:09:43.191Z,4.30
2019-05-15T08:12:13.719Z,4.53
2019-05-15T08:14:47.257Z,4.80
2019-05-15T08:17:19.046Z,4.05
2019-05-15T08:19:48.757Z,4.30
2019-05-15T08:22:19.298Z,3.15
2019-05-15T08:24:49.780Z,3.62
2019-05-15T08:27:23.312Z,3.62
2019-05-15T08:29:53.297Z,3.70
2019-05-15T08:32:23.725Z,2.92
2019-05-15T08:34:54.150Z,2.75
2019-05-15T08:37:24.577Z,2.77
2019-05-15T08:39:55.010Z,2.75
2019-05-15T08:42:27.992Z,2.92
2019-05-15T08:44:58.404Z,2.62
2019-05-15T08:47:29.743Z,2.65
2019-05-15T08:50:00.308Z,2.77
2019-05-15T08:52:30.729Z,2.60
2019-05-15T08:55:01.203Z,2.65
2019-05-15T08:57:31.883Z,2.58
2019-05-15T09:00:02.316Z,2.70
2019-05-15T09:02:32.844Z,2.65
2019-05-15T09:05:03.566Z,2.90
2019-05-15T09:07:34.094Z,2.77
2019-05-15T09:10:04.691Z,2.75
2019-05-15T09:12:35.163Z,3.02
2019-05-15T09:15:07.677Z,2.33
2019-05-15T09:17:39.807Z,2.20
2019-05-15T09:20:11.431Z,2.50
2019-05-15T09:22:41.901Z,2.20
2019-05-15T09:25:12.880Z,2.37
2019-05-15T09:27:43.362Z,2.90
2019-05-15T09:30:15.218Z,2.12
2019-05-15T09:32:48.153Z,2.47
2019-05-15T09:35:21.139Z,2.00
2019-05-15T09:37:51.821Z,2.47
2019-05-15T09:40:22.342Z,2.37
2019-05-15T09:42:52.779Z,2.30
2019-05-15T09:45:23.480Z,2.45
2019-05-15T09:47:53.947Z,2.52
2019-05-15T09:50:24.383Z,2.45
2019-05-15T09:52:54.795Z,2.55
2019-05-15T09:55:25.224Z,2.50
2019-05-15T09:57:55.700Z,2.37
2019-05-15T10:00:29.070Z,2.62
2019-05-15T10:02:59.134Z,2.20
2019-05-15T10:05:29.593Z,2.20
2019-05-15T10:08:00.335Z,2.35
2019-05-15T10:10:31.367Z,1.87
2019-05-15T10:13:40.758Z,1.90
2019-05-15T10:16:11.236Z,2.05
2019-05-15T10:18:41.664Z,2.20
2019-05-15T10:21:13.116Z,2.70
2019-05-15T10:23:43.547Z,2.20
2019-05-15T10:26:14.543Z,2.15
2019-05-15T10:28:45.272Z,2.33
2019-05-15T10:31:15.742Z,2.08
2019-05-15T10:33:49.147Z,2.15
2019-05-15T10:36:21.216Z,1.95
2019-05-15T10:38:52.871Z,1.92
2019-05-15T10:41:23.390Z,2.22
2019-05-15T10:43:56.558Z,1.80
2019-05-15T10:46:27.218Z,2.33
2019-05-15T10:48:58.592Z,2.55
2019-05-15T10:51:29.198Z,3.25
2019-05-15T10:53:59.665Z,2.85
2019-05-15T10:56:30.149Z,2.85
2019-05-15T10:59:01.779Z,2.80
2019-05-15T11:01:33.607Z,3.40
2019-05-15T11:04:04.276Z,2.42
2019-05-15T11:06:34.731Z,3.55
2019-05-15T11:09:08.237Z,3.12
2019-05-15T11:11:38.245Z,3.10
2019-05-15T11:14:09.263Z,3.17
2019-05-15T11:16:39.812Z,3.30
2019-05-15T11:19:10.239Z,3.02
2019-05-15T11:21:43.407Z,2.95
2019-05-15T11:24:12.722Z,3.42
2019-05-15T11:26:43.158Z,3.20
2019-05-15T11:29:13.586Z,3.42
2019-05-15T11:31:44.078Z,2.75
2019-05-15T11:34:14.542Z,3.17
2019-05-15T11:36:44.968Z,3.37
2019-05-15T11:39:18.062Z,2.60
2019-05-15T11:41:49.216Z,2.83
2019-05-15T11:44:19.722Z,3.17
2019-05-15T11:46:50.159Z,2.65
2019-05-15T11:49:20.586Z,2.90
2019-05-15T11:51:51.012Z,2.90
2019-05-15T11:54:22.566Z,2.55
2019-05-15T11:56:52.983Z,3.15
2019-05-15T11:59:23.429Z,2.58
2019-05-15T12:01:53.846Z,3.40
2019-05-15T12:04:30.243Z,3.30
2019-05-15T12:06:59.626Z,3.00
2019-05-15T12:09:28.926Z,3.20
2019-05-15T12:11:59.489Z,3.00
2019-05-15T12:14:29.980Z,2.75
2019-05-15T12:17:10.381Z,2.72
2019-05-15T12:19:33.901Z,2.90
2019-05-15T12:22:04.328Z,2.67
2019-05-15T12:24:36.782Z,2.95
2019-05-15T12:27:15.317Z,3.47
2019-05-15T12:29:40.149Z,3.20
2019-05-15T12:32:25.283Z,3.52
2019-05-15T12:34:42.939Z,3.02
2019-05-15T12:37:13.750Z,3.05
2019-05-15T12:39:44.179Z,3.15
2019-05-15T13:00:00.202Z,2.80
2019-05-15T13:02:30.613Z,2.37
2019-05-15T13:05:01.247Z,2.30
2019-05-15T13:07:31.719Z,2.90
2019-05-15T13:10:02.286Z,2.55
2019-05-15T13:12:32.775Z,2.37
2019-05-15T13:15:03.266Z,2.70
2019-05-15T13:17:33.690Z,2.83
2019-05-15T13:20:04.321Z,2.22
2019-05-15T13:22:36.417Z,2.80
2019-05-15T13:25:08.524Z,2.52
2019-05-15T13:27:39.184Z,2.90
2019-05-15T13:30:09.920Z,2.70
2019-05-15T13:32:41.157Z,2.75
2019-05-15T13:35:11.906Z,2.77
2019-05-15T13:37:42.383Z,2.85
2019-05-15T13:40:13.267Z,3.08
2019-05-15T13:42:43.698Z,2.83
2019-05-15T13:45:14.228Z,2.90
2019-05-15T13:47:44.650Z,3.08
2019-05-15T13:50:15.076Z,3.25
2019-05-15T13:52:45.502Z,3.27
2019-05-15T13:55:24.604Z,3.42
2019-05-15T13:57:48.692Z,2.95
2019-05-15T14:00:19.650Z,2.95
2019-05-15T14:02:50.078Z,3.08
2019-05-15T14:05:20.505Z,3.10
2019-05-15T14:07:53.567Z,2.67
2019-05-15T14:10:23.149Z,3.20
2019-05-15T14:12:53.699Z,2.77
2019-05-15T14:15:24.254Z,2.75
2019-05-15T14:17:54.687Z,2.90
2019-05-15T14:20:25.190Z,3.47
2019-05-15T14:22:55.644Z,2.75
2019-05-15T14:25:26.279Z,2.90
2019-05-15T14:27:59.128Z,3.65
2019-05-15T14:30:29.779Z,3.00
2019-05-15T14:33:00.579Z,2.80
2019-05-15T14:35:31.364Z,2.85
2019-05-15T14:38:06.541Z,3.02
2019-05-15T14:40:34.217Z,2.75
2019-05-15T14:43:04.692Z,2.77
2019-05-15T14:45:35.427Z,3.33
2019-05-15T14:48:05.855Z,3.40
2019-05-15T14:50:38.942Z,3.22
2019-05-15T14:53:09.771Z,3.40
2019-05-15T14:55:43.841Z,3.02
2019-05-15T14:58:12.475Z,3.05
2019-05-15T15:00:42.903Z,2.90
2019-05-15T15:03:13.638Z,2.92
2019-05-15T15:05:44.065Z,2.95
2019-05-15T15:08:21.615Z,2.77
2019-05-15T15:10:47.043Z,2.85
2019-05-15T15:13:18.259Z,3.00
2019-05-15T15:15:49.038Z,2.98
2019-05-15T15:18:19.477Z,3.05
2019-05-15T15:20:50.924Z,2.80
2019-05-15T15:23:21.352Z,2.85
2019-05-15T15:25:51.780Z,2.77
2019-05-15T15:28:22.208Z,2.70
2019-05-15T15:30:52.638Z,2.72
2019-05-15T15:33:23.067Z,3.12
2019-05-15T15:35:53.490Z,2.80
2019-05-15T15:38:38.040Z,2.80
2019-05-15T15:41:00.076Z,2.30
2019-05-15T15:43:29.218Z,2.77
2019-05-15T15:45:59.707Z,3.12
2019-05-15T15:48:30.120Z,3.22
2019-05-15T15:51:00.557Z,3.30
2019-05-15T15:53:30.983Z,3.27
2019-05-15T15:56:01.712Z,3.33
2019-05-15T15:58:32.143Z,2.87
2019-05-15T16:01:02.572Z,3.70
2019-05-15T16:03:32.987Z,3.02
2019-05-15T16:06:03.534Z,3.40
2019-05-15T16:08:34.122Z,2.90
2019-05-15T16:11:04.957Z,3.42
2019-05-15T16:13:35.468Z,4.12
2019-05-15T16:16:08.402Z,3.77
2019-05-15T16:18:38.503Z,4.25
2019-05-15T16:21:08.955Z,4.47
2019-05-15T16:23:39.587Z,4.80
2019-05-15T16:26:10.015Z,5.60
2019-05-15T16:28:40.443Z,4.50
2019-05-15T16:31:12.318Z,5.57
2019-05-15T16:33:48.566Z,5.60
2019-05-15T16:36:19.300Z,5.80
2019-05-15T16:39:03.702Z,6.50
2019-05-15T16:41:22.816Z,6.07
2019-05-15T16:43:53.245Z,5.90
2019-05-15T16:46:24.421Z,5.57
2019-05-15T16:48:58.356Z,5.60
2019-05-15T16:51:32.238Z,5.67
2019-05-15T16:54:01.403Z,5.13
2019-05-15T16:56:31.829Z,5.17
2019-05-15T16:59:02.275Z,5.37
2019-05-15T17:01:32.681Z,4.97
2019-05-15T17:04:03.202Z,5.07
2019-05-15T17:06:33.638Z,5.50
2019-05-15T17:09:17.588Z,5.37
2019-05-15T17:11:38.405Z,5.53
2019-05-15T17:14:08.813Z,5.67
2019-05-15T17:16:39.588Z,5.20
2019-05-15T17:19:10.075Z,5.23
2019-05-15T17:21:40.507Z,6.30
2019-05-15T17:24:10.936Z,5.83
2019-05-15T17:26:41.355Z,5.57
2019-05-15T17:29:11.783Z,5.53
2019-05-15T17:31:43.438Z,5.40
2019-05-15T17:34:13.855Z,5.03
2019-05-15T17:36:44.292Z,5.60
2019-05-15T17:39:14.723Z,4.90
2019-05-15T17:41:45.146Z,5.07
2019-05-15T17:44:15.574Z,4.90
2019-05-15T17:46:48.758Z,5.40
2019-05-15T17:49:18.313Z,5.60
2019-05-15T17:51:48.949Z,5.87
2019-05-15T17:54:19.430Z,6.00
2019-05-15T17:56:49.857Z,5.80
2019-05-15T17:59:20.288Z,5.73
2019-05-15T18:01:49.996Z,5.57
2019-05-15T18:04:20.422Z,5.63
2019-05-15T18:06:50.849Z,5.80
2019-05-15T18:09:21.378Z,5.67
2019-05-15T18:11:51.919Z,6.07
2019-05-15T18:14:22.469Z,6.90
2019-05-15T18:16:52.965Z,6.70
2019-05-15T18:19:23.442Z,6.70
2019-05-15T18:21:53.924Z,6.73
2019-05-15T18:24:24.349Z,6.13
2019-05-15T18:26:54.783Z,5.63
2019-05-15T18:29:25.501Z,5.87
2019-05-15T18:31:55.938Z,6.03
2019-05-15T18:34:28.582Z,6.10
2019-05-15T18:36:58.430Z,6.07
2019-05-15T18:39:30.187Z,5.97
2019-05-15T18:42:00.621Z,5.47
2019-05-15T18:44:31.371Z,5.77
2019-05-15T18:47:01.780Z,5.17
2019-05-15T18:49:33.232Z,5.40
2019-05-15T18:52:03.804Z,5.60
2019-05-15T18:54:34.285Z,5.73
2019-05-15T18:57:04.713Z,5.20
2019-05-15T18:59:35.141Z,5.03
2019-05-15T19:02:07.876Z,5.10
2019-05-15T19:04:38.303Z,5.10
2019-05-15T19:07:09.022Z,5.00
2019-05-15T19:09:39.813Z,5.20
2019-05-15T19:12:10.862Z,5.40
2019-05-15T19:14:41.506Z,5.23
2019-05-15T19:17:12.089Z,5.50
2019-05-15T19:19:42.557Z,4.63
2019-05-15T19:22:13.039Z,5.67
2019-05-15T19:24:43.504Z,5.30
2019-05-15T19:27:14.240Z,5.77
2019-05-15T19:29:44.666Z,5.20
2019-05-15T19:32:15.106Z,5.20
2019-05-15T19:34:45.649Z,5.43
2019-05-15T19:37:18.179Z,4.80
2019-05-15T19:39:48.461Z,4.90
2019-05-15T19:42:19.183Z,4.53
2019-05-15T19:44:49.695Z,5.67
2019-05-15T19:47:20.337Z,5.43
2019-05-15T19:49:50.979Z,4.97
2019-05-15T19:52:21.558Z,4.87
2019-05-15T19:54:52.089Z,4.80
2019-05-15T19:57:23.253Z,4.80
2019-05-15T19:59:54.874Z,4.27
2019-05-15T20:02:28.426Z,5.47
2019-05-15T20:04:58.368Z,4.80
2019-05-15T20:07:29.106Z,5.00
2019-05-15T20:09:59.712Z,4.37
2019-05-15T20:12:30.243Z,5.17
2019-05-15T20:15:01.231Z,4.47
2019-05-15T20:17:31.872Z,5.70
2019-05-15T20:20:02.772Z,4.63
2019-05-15T20:22:36.562Z,5.10
2019-05-15T20:25:08.264Z,4.30
2019-05-15T20:27:39.049Z,4.73
2019-05-15T20:30:10.172Z,5.23
2019-05-15T20:32:40.596Z,4.93
2019-05-15T20:35:11.219Z,4.90
2019-05-15T20:37:42.438Z,4.70
2019-05-15T20:40:13.713Z,4.60
2019-05-15T20:42:44.290Z,4.63
2019-05-15T20:45:14.902Z,5.33
2019-05-15T20:47:45.973Z,5.40
2019-05-15T20:50:19.122Z,5.43
2019-05-15T20:52:49.217Z,5.07
2019-05-15T20:55:19.918Z,4.77
2019-05-15T20:57:50.597Z,4.37
2019-05-15T21:00:21.567Z,4.57
2019-05-15T21:02:52.012Z,5.00
2019-05-15T21:05:22.617Z,6.97
2019-05-15T21:07:53.151Z,5.00
2019-05-15T21:10:23.941Z,4.77
2019-05-15T21:12:54.418Z,5.07
2019-05-15T21:15:25.007Z,5.23
2019-05-15T21:17:59.424Z,5.33
2019-05-15T21:20:28.785Z,5.20
2019-05-15T21:23:01.438Z,5.30
2019-05-15T21:25:31.567Z,5.20
2019-05-15T21:28:02.148Z,5.40
2019-05-15T21:30:33.132Z,5.73
2019-05-15T21:33:03.751Z,4.87
2019-05-15T21:35:34.360Z,5.50
2019-05-15T21:38:04.831Z,4.70
2019-05-15T21:40:38.457Z,4.73
2019-05-15T21:43:08.893Z,4.87
2019-05-15T21:45:39.894Z,5.40
2019-05-15T21:48:10.693Z,4.53
2019-05-15T21:50:41.275Z,4.97
2019-05-15T21:53:11.794Z,5.63
2019-05-15T21:55:42.315Z,4.87
2019-05-15T21:58:12.902Z,5.20
2019-05-15T22:00:48.382Z,4.80
2019-05-15T22:03:19.820Z,5.40
2019-05-15T22:05:50.769Z,5.00
2019-05-15T22:08:21.314Z,5.17
2019-05-15T22:10:52.646Z,4.87
2019-05-15T22:13:28.596Z,5.30
2019-05-15T22:15:58.748Z,5.60
2019-05-15T22:18:28.538Z,5.40
2019-05-15T22:20:59.370Z,4.93
2019-05-15T22:23:29.786Z,5.40
2019-05-15T22:26:00.214Z,5.80
2019-05-15T22:28:30.795Z,4.90
2019-05-15T22:31:01.383Z,5.07
2019-05-15T22:33:31.987Z,4.57
2019-05-15T22:36:02.547Z,4.80
2019-05-15T22:38:32.982Z,5.60
2019-05-15T22:41:03.399Z,5.10
2019-05-15T22:43:33.919Z,4.83
2019-05-15T22:46:04.357Z,5.33
2019-05-15T22:48:34.783Z,5.50
2019-05-15T22:51:05.416Z,6.43
2019-05-15T22:53:38.161Z,5.63
2019-05-15T22:56:09.362Z,5.70
2019-05-15T22:58:39.872Z,5.67
2019-05-15T23:01:11.575Z,6.17
2019-05-15T23:03:42.055Z,6.20
2019-05-15T23:06:12.484Z,7.23
2019-05-15T23:08:42.910Z,8.43
2019-05-15T23:11:13.335Z,12.27
2019-05-15T23:13:43.763Z,10.43
2019-05-15T23:16:14.498Z,7.17
2019-05-15T23:18:44.996Z,6.47
2019-05-15T23:21:15.454Z,7.00
2019-05-15T23:23:45.881Z,6.80
2019-05-15T23:26:16.305Z,7.23
2019-05-15T23:28:48.088Z,7.40
2019-05-15T23:31:18.987Z,7.97
2019-05-15T23:33:49.536Z,8.23
2019-05-15T23:36:20.166Z,7.27
2019-05-15T23:38:50.592Z,8.07
2019-05-15T23:41:21.020Z,8.07
2019-05-15T23:43:51.446Z,8.10
2019-05-15T23:46:21.873Z,7.93
2019-05-15T23:48:52.303Z,7.80
2019-05-15T23:51:23.960Z,7.47
2019-05-15T23:53:54.593Z,8.23
2019-05-15T23:56:25.121Z,7.93
2019-05-15T23:58:55.535Z,7.97
